sensor_id;sensor_type;location;lat;lon;timestamp;pressure;altitude;pressure_sealevel;temperature;humidity
78014;BME280;67222;50.182;8.734;2023-12-20T05:31:50;100566.78;;;4.80;98.89
78014;BME280;67222;50.182;8.734;2023-12-20T05:34:16;100559.00;;;4.78;97.98
78014;BME280;67222;50.182;8.734;2023-12-20T05:36:41;100567.09;;;4.77;98.35
78014;BME280;67222;50.182;8.734;2023-12-20T05:39:06;100563.47;;;4.70;96.33
78014;BME280;67222;50.182;8.734;2023-12-20T05:41:33;100568.25;;;4.74;96.26
78014;BME280;67222;50.182;8.734;2023-12-20T05:43:58;100561.81;;;4.77;94.05
78014;BME280;67222;50.182;8.734;2023-12-20T05:46:24;100556.19;;;4.72;93.70
78014;BME280;67222;50.182;8.734;2023-12-20T05:48:50;100565.44;;;4.68;95.53
78014;BME280;67222;50.182;8.734;2023-12-20T05:51:16;100556.84;;;4.74;94.43
78014;BME280;67222;50.182;8.734;2023-12-20T05:53:42;100550.25;;;4.70;93.81
78014;BME280;67222;50.182;8.734;2023-12-20T05:56:07;100557.84;;;4.81;92.76
78014;BME280;67222;50.182;8.734;2023-12-20T05:58:33;100560.84;;;4.86;93.06
78014;BME280;67222;50.182;8.734;2023-12-20T06:00:58;100569.59;;;4.86;91.51
78014;BME280;67222;50.182;8.734;2023-12-20T06:03:24;100567.78;;;4.87;90.82
78014;BME280;67222;50.182;8.734;2023-12-20T06:05:49;100572.41;;;4.85;92.61
78014;BME280;67222;50.182;8.734;2023-12-20T06:08:14;100581.97;;;4.78;91.40
78014;BME280;67222;50.182;8.734;2023-12-20T06:10:40;100586.91;;;4.73;90.62
78014;BME280;67222;50.182;8.734;2023-12-20T06:13:05;100585.09;;;4.81;90.79
78014;BME280;67222;50.182;8.734;2023-12-20T06:15:32;100596.50;;;4.82;90.40
78014;BME280;67222;50.182;8.734;2023-12-20T06:17:57;100591.72;;;4.94;89.15
78014;BME280;67222;50.182;8.734;2023-12-20T06:20:22;100594.38;;;4.94;88.80
78014;BME280;67222;50.182;8.734;2023-12-20T06:22:47;100593.53;;;4.93;88.75
78014;BME280;67222;50.182;8.734;2023-12-20T06:25:13;100594.03;;;4.89;90.31
78014;BME280;67222;50.182;8.734;2023-12-20T06:27:38;100592.41;;;4.88;89.39
78014;BME280;67222;50.182;8.734;2023-12-20T06:30:04;100589.09;;;4.85;90.21
78014;BME280;67222;50.182;8.734;2023-12-20T06:32:29;100587.75;;;4.81;89.64
78014;BME280;67222;50.182;8.734;2023-12-20T06:34:54;100573.38;;;4.68;91.10
78014;BME280;67222;50.182;8.734;2023-12-20T06:37:20;100575.84;;;4.69;92.32
78014;BME280;67222;50.182;8.734;2023-12-20T06:39:45;100585.22;;;4.64;91.88
78014;BME280;67222;50.182;8.734;2023-12-20T06:42:12;100588.34;;;4.59;90.98
78014;BME280;67222;50.182;8.734;2023-12-20T06:44:38;100590.00;;;4.60;90.44
78014;BME280;67222;50.182;8.734;2023-12-20T06:47:04;100581.25;;;4.60;90.88
78014;BME280;67222;50.182;8.734;2023-12-20T06:49:29;100588.34;;;4.59;90.84
78014;BME280;67222;50.182;8.734;2023-12-20T06:51:54;100594.47;;;4.60;90.87
78014;BME280;67222;50.182;8.734;2023-12-20T06:54:20;100591.81;;;4.60;90.56
78014;BME280;67222;50.182;8.734;2023-12-20T06:56:45;100586.25;;;4.71;90.59
78014;BME280;67222;50.182;8.734;2023-12-20T06:59:10;100589.38;;;4.74;90.28
78014;BME280;67222;50.182;8.734;2023-12-20T07:01:35;100588.41;;;4.75;90.81
78014;BME280;67222;50.182;8.734;2023-12-20T07:04:01;100593.34;;;4.78;90.34
78014;BME280;67222;50.182;8.734;2023-12-20T07:06:26;100596.81;;;4.79;90.20
78014;BME280;67222;50.182;8.734;2023-12-20T07:08:52;100599.00;;;4.83;89.47
78014;BME280;67222;50.182;8.734;2023-12-20T07:11:17;100606.75;;;4.85;89.72
78014;BME280;67222;50.182;8.734;2023-12-20T07:13:43;100603.59;;;4.81;90.72
78014;BME280;67222;50.182;8.734;2023-12-20T07:16:08;100600.63;;;4.76;89.19
78014;BME280;67222;50.182;8.734;2023-12-20T07:18:33;100605.56;;;4.79;89.81
78014;BME280;67222;50.182;8.734;2023-12-20T07:20:58;100612.88;;;4.85;90.39
78014;BME280;67222;50.182;8.734;2023-12-20T07:23:24;100624.56;;;4.83;89.99
78014;BME280;67222;50.182;8.734;2023-12-20T07:25:50;100624.09;;;4.88;89.47
78014;BME280;67222;50.182;8.734;2023-12-20T07:28:16;100609.69;;;4.74;90.38
78014;BME280;67222;50.182;8.734;2023-12-20T07:30:41;100597.97;;;4.76;90.81
78014;BME280;67222;50.182;8.734;2023-12-20T07:33:06;100603.09;;;4.70;90.59
78014;BME280;67222;50.182;8.734;2023-12-20T07:35:34;100602.59;;;4.66;90.17
78014;BME280;67222;50.182;8.734;2023-12-20T07:37:59;100611.78;;;4.54;90.67
78014;BME280;67222;50.182;8.734;2023-12-20T07:40:24;100616.72;;;4.49;91.56
78014;BME280;67222;50.182;8.734;2023-12-20T07:42:50;100627.47;;;4.55;90.64
78014;BME280;67222;50.182;8.734;2023-12-20T07:45:15;100624.97;;;4.54;90.39
78014;BME280;67222;50.182;8.734;2023-12-20T07:47:40;100632.25;;;4.52;90.87
78014;BME280;67222;50.182;8.734;2023-12-20T07:50:06;100621.19;;;4.48;90.90
78014;BME280;67222;50.182;8.734;2023-12-20T07:52:31;100624.66;;;4.49;90.78
78014;BME280;67222;50.182;8.734;2023-12-20T07:54:56;100617.88;;;4.46;90.60
78014;BME280;67222;50.182;8.734;2023-12-20T07:57:22;100627.13;;;4.50;91.16
78014;BME280;67222;50.182;8.734;2023-12-20T07:59:47;100619.19;;;4.50;90.62
78014;BME280;67222;50.182;8.734;2023-12-20T08:02:12;100629.59;;;4.52;90.33
78014;BME280;67222;50.182;8.734;2023-12-20T08:04:38;100630.91;;;4.48;91.02
78014;BME280;67222;50.182;8.734;2023-12-20T08:07:03;100638.28;;;4.44;90.45
78014;BME280;67222;50.182;8.734;2023-12-20T08:09:29;100647.88;;;4.45;90.94
78014;BME280;67222;50.182;8.734;2023-12-20T08:11:55;100636.03;;;4.49;90.49
78014;BME280;67222;50.182;8.734;2023-12-20T08:14:20;100644.63;;;4.51;91.73
78014;BME280;67222;50.182;8.734;2023-12-20T08:16:46;100645.22;;;4.37;91.18
78014;BME280;67222;50.182;8.734;2023-12-20T08:19:11;100633.50;;;4.40;92.54
78014;BME280;67222;50.182;8.734;2023-12-20T08:21:37;100641.47;;;4.48;91.10
78014;BME280;67222;50.182;8.734;2023-12-20T08:24:02;100640.66;;;4.47;91.01
78014;BME280;67222;50.182;8.734;2023-12-20T08:26:28;100645.44;;;4.52;90.66
78014;BME280;67222;50.182;8.734;2023-12-20T08:28:53;100641.00;;;4.61;90.81
78014;BME280;67222;50.182;8.734;2023-12-20T08:31:18;100629.13;;;4.56;90.16
78014;BME280;67222;50.182;8.734;2023-12-20T08:33:45;100637.69;;;4.59;90.09
78014;BME280;67222;50.182;8.734;2023-12-20T08:36:11;100638.84;;;4.56;90.13
78014;BME280;67222;50.182;8.734;2023-12-20T08:38:36;100642.47;;;4.47;90.41
78014;BME280;67222;50.182;8.734;2023-12-20T08:41:02;100647.03;;;4.45;90.68
78014;BME280;67222;50.182;8.734;2023-12-20T08:43:30;100649.34;;;4.40;91.18
78014;BME280;67222;50.182;8.734;2023-12-20T08:45:55;100649.03;;;4.43;90.93
78014;BME280;67222;50.182;8.734;2023-12-20T08:48:20;100649.03;;;4.43;90.89
78014;BME280;67222;50.182;8.734;2023-12-20T08:50:45;100640.13;;;4.44;91.15
78014;BME280;67222;50.182;8.734;2023-12-20T08:53:12;100642.41;;;4.39;91.07
78014;BME280;67222;50.182;8.734;2023-12-20T08:55:37;100643.13;;;4.49;91.48
78014;BME280;67222;50.182;8.734;2023-12-20T08:58:02;100639.66;;;4.48;91.56
78014;BME280;67222;50.182;8.734;2023-12-20T09:00:28;100634.22;;;4.50;91.59
78014;BME280;67222;50.182;8.734;2023-12-20T09:02:54;100632.41;;;4.50;91.34
78014;BME280;67222;50.182;8.734;2023-12-20T09:05:20;100641.66;;;4.54;90.43
78014;BME280;67222;50.182;8.734;2023-12-20T09:07:45;100645.94;;;4.55;91.39
78014;BME280;67222;50.182;8.734;2023-12-20T09:10:10;100643.47;;;4.54;91.49
78014;BME280;67222;50.182;8.734;2023-12-20T09:12:36;100636.88;;;4.58;90.63
78014;BME280;67222;50.182;8.734;2023-12-20T09:15:05;100640.19;;;4.60;90.63
78014;BME280;67222;50.182;8.734;2023-12-20T09:17:30;100642.50;;;4.63;90.58
78014;BME280;67222;50.182;8.734;2023-12-20T09:19:56;100647.16;;;4.69;90.46
78014;BME280;67222;50.182;8.734;2023-12-20T09:22:21;100639.75;;;4.73;90.95
78014;BME280;67222;50.182;8.734;2023-12-20T09:24:47;100644.56;;;4.85;90.87
78014;BME280;67222;50.182;8.734;2023-12-20T09:27:12;100643.59;;;4.95;89.94
78014;BME280;67222;50.182;8.734;2023-12-20T09:29:37;100648.38;;;4.99;89.01
78014;BME280;67222;50.182;8.734;2023-12-20T09:32:03;100649.03;;;5.01;88.90
78014;BME280;67222;50.182;8.734;2023-12-20T09:34:28;100641.13;;;5.01;89.53
78014;BME280;67222;50.182;8.734;2023-12-20T09:36:54;100646.25;;;5.03;90.27
78014;BME280;67222;50.182;8.734;2023-12-20T09:39:20;100642.78;;;5.02;89.82
78014;BME280;67222;50.182;8.734;2023-12-20T09:42:04;100648.22;;;5.01;89.40
78014;BME280;67222;50.182;8.734;2023-12-20T09:44:31;100655.03;;;5.03;90.07
78014;BME280;67222;50.182;8.734;2023-12-20T09:46:57;100654.38;;;5.09;89.09
78014;BME280;67222;50.182;8.734;2023-12-20T09:49:23;100664.09;;;5.09;90.12
78014;BME280;67222;50.182;8.734;2023-12-20T09:51:51;100658.16;;;5.07;89.62
78014;BME280;67222;50.182;8.734;2023-12-20T09:54:17;100660.19;;;5.21;90.32
78014;BME280;67222;50.182;8.734;2023-12-20T09:56:43;100664.13;;;5.33;89.10
78014;BME280;67222;50.182;8.734;2023-12-20T09:59:09;100660.84;;;5.39;88.55
78014;BME280;67222;50.182;8.734;2023-12-20T10:01:35;100664.47;;;5.38;89.36
78014;BME280;67222;50.182;8.734;2023-12-20T10:04:05;100650.44;;;5.46;89.45
78014;BME280;67222;50.182;8.734;2023-12-20T10:06:34;100656.38;;;5.48;88.75
78014;BME280;67222;50.182;8.734;2023-12-20T10:08:59;100661.19;;;5.44;89.07
78014;BME280;67222;50.182;8.734;2023-12-20T10:11:24;100655.88;;;5.44;88.50
78014;BME280;67222;50.182;8.734;2023-12-20T10:13:50;100641.69;;;5.45;89.31
78014;BME280;67222;50.182;8.734;2023-12-20T10:16:15;100638.69;;;5.48;89.32
78014;BME280;67222;50.182;8.734;2023-12-20T10:18:40;100647.94;;;5.53;88.27
78014;BME280;67222;50.182;8.734;2023-12-20T10:21:06;100633.25;;;5.50;89.31
78014;BME280;67222;50.182;8.734;2023-12-20T10:23:35;100632.72;;;5.55;89.05
78014;BME280;67222;50.182;8.734;2023-12-20T10:26:01;100628.44;;;5.62;89.10
78014;BME280;67222;50.182;8.734;2023-12-20T10:28:26;100632.38;;;5.74;89.07
78014;BME280;67222;50.182;8.734;2023-12-20T10:30:54;100616.53;;;5.82;87.55
78014;BME280;67222;50.182;8.734;2023-12-20T10:33:24;100608.75;;;5.81;88.48
78014;BME280;67222;50.182;8.734;2023-12-20T10:35:51;100611.06;;;5.84;89.09
78014;BME280;67222;50.182;8.734;2023-12-20T10:38:17;100589.41;;;5.80;87.09
78014;BME280;67222;50.182;8.734;2023-12-20T10:40:45;100577.34;;;5.77;87.93
78014;BME280;67222;50.182;8.734;2023-12-20T10:43:11;100588.06;;;5.84;89.29
78014;BME280;67222;50.182;8.734;2023-12-20T10:45:36;100576.81;;;5.90;87.25
78014;BME280;67222;50.182;8.734;2023-12-20T10:48:02;100573.00;;;6.01;87.09
78014;BME280;67222;50.182;8.734;2023-12-20T10:50:28;100564.84;;;6.19;87.09
78014;BME280;67222;50.182;8.734;2023-12-20T10:52:55;100557.81;;;6.34;86.04
78014;BME280;67222;50.182;8.734;2023-12-20T10:55:24;100570.31;;;6.48;86.50
78014;BME280;67222;50.182;8.734;2023-12-20T10:57:51;100557.31;;;6.61;85.07
78014;BME280;67222;50.182;8.734;2023-12-20T11:00:18;100563.56;;;6.68;83.29
78014;BME280;67222;50.182;8.734;2023-12-20T11:02:44;100563.44;;;6.62;84.36
78014;BME280;67222;50.182;8.734;2023-12-20T11:08:05;100561.06;;;6.75;83.98
78014;BME280;67222;50.182;8.734;2023-12-20T11:13:57;100554.13;;;7.35;82.24
78014;BME280;67222;50.182;8.734;2023-12-20T11:16:25;100556.06;;;7.26;80.74
78014;BME280;67222;50.182;8.734;2023-12-20T11:18:50;100564.88;;;7.18;81.92
78014;BME280;67222;50.182;8.734;2023-12-20T11:21:16;100554.88;;;7.06;81.43
78014;BME280;67222;50.182;8.734;2023-12-20T11:23:42;100556.69;;;7.05;81.87
78014;BME280;67222;50.182;8.734;2023-12-20T11:26:07;100561.13;;;7.13;82.17
78014;BME280;67222;50.182;8.734;2023-12-20T11:28:32;100563.09;;;7.34;80.75
78014;BME280;67222;50.182;8.734;2023-12-20T11:31:01;100578.91;;;7.27;80.27
78014;BME280;67222;50.182;8.734;2023-12-20T11:33:30;100565.41;;;7.14;79.72
78014;BME280;67222;50.182;8.734;2023-12-20T11:35:56;100559.69;;;7.02;81.09
78014;BME280;67222;50.182;8.734;2023-12-20T11:38:22;100561.06;;;6.98;81.05
78014;BME280;67222;50.182;8.734;2023-12-20T11:40:49;100561.72;;;7.00;82.32
78014;BME280;67222;50.182;8.734;2023-12-20T11:43:35;100561.78;;;6.92;81.50
78014;BME280;67222;50.182;8.734;2023-12-20T11:46:08;100551.81;;;6.94;81.02
78014;BME280;67222;50.182;8.734;2023-12-20T11:48:38;100561.13;;;6.90;80.45
78014;BME280;67222;50.182;8.734;2023-12-20T11:51:11;100558.00;;;6.86;80.14
78014;BME280;67222;50.182;8.734;2023-12-20T11:53:37;100554.50;;;6.86;80.64
78014;BME280;67222;50.182;8.734;2023-12-20T11:56:04;100571.25;;;6.86;80.96
78014;BME280;67222;50.182;8.734;2023-12-20T11:58:30;100552.69;;;6.86;78.97
78014;BME280;67222;50.182;8.734;2023-12-20T12:00:56;100544.03;;;6.92;76.45
78014;BME280;67222;50.182;8.734;2023-12-20T12:03:21;100546.91;;;6.83;77.36
78014;BME280;67222;50.182;8.734;2023-12-20T12:05:48;100537.94;;;6.92;77.08
78014;BME280;67222;50.182;8.734;2023-12-20T12:08:13;100544.16;;;6.99;74.28
78014;BME280;67222;50.182;8.734;2023-12-20T12:10:39;100535.56;;;6.97;74.94
78014;BME280;67222;50.182;8.734;2023-12-20T12:13:04;100522.31;;;6.97;76.68
78014;BME280;67222;50.182;8.734;2023-12-20T12:15:30;100514.00;;;7.00;75.70
78014;BME280;67222;50.182;8.734;2023-12-20T12:17:56;100522.41;;;7.04;76.87
78014;BME280;67222;50.182;8.734;2023-12-20T12:20:22;100523.34;;;7.11;75.19
78014;BME280;67222;50.182;8.734;2023-12-20T12:23:01;100524.66;;;7.15;73.92
78014;BME280;67222;50.182;8.734;2023-12-20T12:25:29;100513.84;;;7.16;74.58
78014;BME280;67222;50.182;8.734;2023-12-20T12:27:56;100524.56;;;7.23;74.18
78014;BME280;67222;50.182;8.734;2023-12-20T12:30:21;100531.69;;;7.22;73.86
78014;BME280;67222;50.182;8.734;2023-12-20T12:32:47;100533.88;;;7.19;74.60
78014;BME280;67222;50.182;8.734;2023-12-20T12:35:14;100531.88;;;7.21;73.81
78014;BME280;67222;50.182;8.734;2023-12-20T12:37:40;100530.78;;;7.15;73.48
78014;BME280;67222;50.182;8.734;2023-12-20T12:40:10;100526.94;;;7.18;72.88
78014;BME280;67222;50.182;8.734;2023-12-20T12:42:36;100531.06;;;7.20;74.21
78014;BME280;67222;50.182;8.734;2023-12-20T12:45:02;100519.44;;;7.21;73.92
78014;BME280;67222;50.182;8.734;2023-12-20T12:47:28;100514.22;;;7.13;73.48
78014;BME280;67222;50.182;8.734;2023-12-20T12:49:53;100514.28;;;7.05;73.94
78014;BME280;67222;50.182;8.734;2023-12-20T12:52:19;100496.72;;;7.04;75.07
78014;BME280;67222;50.182;8.734;2023-12-20T12:54:45;100502.03;;;7.04;73.97
78014;BME280;67222;50.182;8.734;2023-12-20T12:57:11;100488.94;;;7.03;75.96
78014;BME280;67222;50.182;8.734;2023-12-20T12:59:36;100486.94;;;7.05;75.44
78014;BME280;67222;50.182;8.734;2023-12-20T13:02:02;100485.94;;;7.06;74.84
78014;BME280;67222;50.182;8.734;2023-12-20T13:04:27;100492.59;;;7.02;75.67
78014;BME280;67222;50.182;8.734;2023-12-20T13:06:53;100481.63;;;7.05;75.50
78014;BME280;67222;50.182;8.734;2023-12-20T13:09:18;100475.50;;;7.04;74.84
78014;BME280;67222;50.182;8.734;2023-12-20T13:11:44;100464.19;;;7.10;74.79
78014;BME280;67222;50.182;8.734;2023-12-20T13:14:09;100469.88;;;7.07;75.36
78014;BME280;67222;50.182;8.734;2023-12-20T13:16:40;100466.22;;;7.08;74.99
78014;BME280;67222;50.182;8.734;2023-12-20T13:19:05;100457.25;;;7.09;74.65
78014;BME280;67222;50.182;8.734;2023-12-20T13:21:31;100452.66;;;7.03;75.05
78014;BME280;67222;50.182;8.734;2023-12-20T13:23:56;100451.00;;;7.02;75.50
78014;BME280;67222;50.182;8.734;2023-12-20T13:26:21;100461.97;;;6.99;75.25
78014;BME280;67222;50.182;8.734;2023-12-20T13:28:47;100446.06;;;6.99;77.41
78014;BME280;67222;50.182;8.734;2023-12-20T13:31:12;100441.59;;;6.99;76.62
78014;BME280;67222;50.182;8.734;2023-12-20T13:33:37;100440.84;;;7.06;76.20
78014;BME280;67222;50.182;8.734;2023-12-20T13:36:04;100439.03;;;7.06;76.79
78014;BME280;67222;50.182;8.734;2023-12-20T13:38:29;100441.94;;;6.96;75.43
78014;BME280;67222;50.182;8.734;2023-12-20T13:40:55;100432.16;;;6.97;75.76
78014;BME280;67222;50.182;8.734;2023-12-20T13:43:20;100420.97;;;6.87;75.99
78014;BME280;67222;50.182;8.734;2023-12-20T13:45:47;100433.72;;;6.91;77.14
78014;BME280;67222;50.182;8.734;2023-12-20T13:48:13;100442.31;;;6.93;76.21
78014;BME280;67222;50.182;8.734;2023-12-20T13:50:38;100443.50;;;6.91;76.88
78014;BME280;67222;50.182;8.734;2023-12-20T13:53:04;100445.50;;;6.89;77.43
78014;BME280;67222;50.182;8.734;2023-12-20T13:55:29;100444.97;;;6.93;77.08
78014;BME280;67222;50.182;8.734;2023-12-20T13:57:55;100440.22;;;6.89;77.15
78014;BME280;67222;50.182;8.734;2023-12-20T14:00:22;100443.50;;;6.91;76.46
78014;BME280;67222;50.182;8.734;2023-12-20T14:02:47;100435.06;;;6.87;77.86
78014;BME280;67222;50.182;8.734;2023-12-20T14:05:13;100450.00;;;6.88;77.78
78014;BME280;67222;50.182;8.734;2023-12-20T14:07:42;100439.72;;;6.85;77.74
78014;BME280;67222;50.182;8.734;2023-12-20T14:10:10;100457.44;;;6.85;77.54
78014;BME280;67222;50.182;8.734;2023-12-20T14:12:36;100446.97;;;6.91;76.69
78014;BME280;67222;50.182;8.734;2023-12-20T14:15:03;100439.44;;;6.80;77.03
78014;BME280;67222;50.182;8.734;2023-12-20T14:17:28;100430.31;;;6.83;77.40
78014;BME280;67222;50.182;8.734;2023-12-20T14:19:54;100428.28;;;6.85;78.65
78014;BME280;67222;50.182;8.734;2023-12-20T14:22:20;100430.44;;;6.89;77.72
78014;BME280;67222;50.182;8.734;2023-12-20T14:24:45;100425.28;;;6.88;78.57
78014;BME280;67222;50.182;8.734;2023-12-20T14:27:11;100422.00;;;6.86;78.19
78014;BME280;67222;50.182;8.734;2023-12-20T14:29:37;100413.94;;;6.79;78.96
78014;BME280;67222;50.182;8.734;2023-12-20T14:32:03;100402.63;;;6.85;78.42
78014;BME280;67222;50.182;8.734;2023-12-20T14:34:29;100413.22;;;6.85;78.26
78014;BME280;67222;50.182;8.734;2023-12-20T14:36:54;100413.69;;;6.89;78.18
78014;BME280;67222;50.182;8.734;2023-12-20T14:39:20;100417.50;;;6.86;78.29
78014;BME280;67222;50.182;8.734;2023-12-20T14:41:45;100410.56;;;6.85;79.50
78014;BME280;67222;50.182;8.734;2023-12-20T14:44:11;100415.88;;;6.85;78.54
78014;BME280;67222;50.182;8.734;2023-12-20T14:46:37;100401.28;;;6.89;78.83
78014;BME280;67222;50.182;8.734;2023-12-20T14:49:03;100392.66;;;6.87;78.43
78014;BME280;67222;50.182;8.734;2023-12-20T14:51:28;100391.81;;;6.87;78.18
78014;BME280;67222;50.182;8.734;2023-12-20T14:53:53;100403.81;;;6.83;78.88
78014;BME280;67222;50.182;8.734;2023-12-20T14:56:19;100409.66;;;6.78;79.20
78014;BME280;67222;50.182;8.734;2023-12-20T14:58:45;100415.22;;;6.83;78.36
78014;BME280;67222;50.182;8.734;2023-12-20T15:01:11;100411.75;;;6.83;78.39
78014;BME280;67222;50.182;8.734;2023-12-20T15:03:36;100422.81;;;6.86;79.29
78014;BME280;67222;50.182;8.734;2023-12-20T15:06:02;100415.41;;;6.82;78.28
78014;BME280;67222;50.182;8.734;2023-12-20T15:08:27;100413.47;;;6.76;78.75
78014;BME280;67222;50.182;8.734;2023-12-20T15:10:52;100410.47;;;6.79;79.13
78014;BME280;67222;50.182;8.734;2023-12-20T15:13:18;100411.84;;;6.75;79.48
78014;BME280;67222;50.182;8.734;2023-12-20T15:15:43;100419.59;;;6.76;80.04
78014;BME280;67222;50.182;8.734;2023-12-20T15:18:09;100417.13;;;6.75;79.35
78014;BME280;67222;50.182;8.734;2023-12-20T15:20:34;100419.16;;;6.73;80.04
78014;BME280;67222;50.182;8.734;2023-12-20T15:23:01;100415.84;;;6.71;78.43
78014;BME280;67222;50.182;8.734;2023-12-20T15:25:32;100429.75;;;6.73;79.35
78014;BME280;67222;50.182;8.734;2023-12-20T15:27:57;100418.19;;;6.65;78.77
78014;BME280;67222;50.182;8.734;2023-12-20T15:30:22;100427.16;;;6.64;79.62
78014;BME280;67222;50.182;8.734;2023-12-20T15:32:51;100418.91;;;6.59;79.56
78014;BME280;67222;50.182;8.734;2023-12-20T15:35:16;100416.53;;;6.64;79.26
78014;BME280;67222;50.182;8.734;2023-12-20T15:37:42;100413.91;;;6.64;79.08
78014;BME280;67222;50.182;8.734;2023-12-20T15:40:08;100414.91;;;6.63;79.32
78014;BME280;67222;50.182;8.734;2023-12-20T15:42:35;100409.50;;;6.57;80.17
78014;BME280;67222;50.182;8.734;2023-12-20T15:45:02;100408.31;;;6.59;80.10
78014;BME280;67222;50.182;8.734;2023-12-20T15:47:27;100404.94;;;6.51;79.92
78014;BME280;67222;50.182;8.734;2023-12-20T15:49:52;100402.78;;;6.46;81.05
78014;BME280;67222;50.182;8.734;2023-12-20T15:52:18;100412.38;;;6.47;81.41
78014;BME280;67222;50.182;8.734;2023-12-20T15:54:43;100411.38;;;6.48;80.67
78014;BME280;67222;50.182;8.734;2023-12-20T15:57:09;100410.69;;;6.54;80.71
78014;BME280;67222;50.182;8.734;2023-12-20T15:59:35;100421.28;;;6.54;80.33
78014;BME280;67222;50.182;8.734;2023-12-20T16:02:01;100425.25;;;6.50;80.21
78014;BME280;67222;50.182;8.734;2023-12-20T16:04:27;100420.47;;;6.54;80.21
78014;BME280;67222;50.182;8.734;2023-12-20T16:06:53;100417.44;;;6.57;80.74
78014;BME280;67222;50.182;8.734;2023-12-20T16:09:18;100409.38;;;6.50;80.65
78014;BME280;67222;50.182;8.734;2023-12-20T16:11:43;100413.50;;;6.53;80.19
78014;BME280;67222;50.182;8.734;2023-12-20T16:14:10;100420.09;;;6.57;80.74
78014;BME280;67222;50.182;8.734;2023-12-20T16:16:40;100409.69;;;6.55;80.80
78014;BME280;67222;50.182;8.734;2023-12-20T16:19:06;100403.25;;;6.50;81.46
78014;BME280;67222;50.182;8.734;2023-12-20T16:21:32;100407.84;;;6.56;80.38
78014;BME280;67222;50.182;8.734;2023-12-20T16:23:57;100413.75;;;6.43;81.60
78014;BME280;67222;50.182;8.734;2023-12-20T16:26:22;100422.50;;;6.44;82.09
78014;BME280;67222;50.182;8.734;2023-12-20T16:28:48;100424.69;;;6.40;81.40
78014;BME280;67222;50.182;8.734;2023-12-20T16:31:13;100420.16;;;6.49;82.05
78014;BME280;67222;50.182;8.734;2023-12-20T16:33:38;100437.88;;;6.48;81.40
78014;BME280;67222;50.182;8.734;2023-12-20T16:36:04;100435.41;;;6.47;81.62
78014;BME280;67222;50.182;8.734;2023-12-20T16:38:30;100426.44;;;6.48;81.75
78014;BME280;67222;50.182;8.734;2023-12-20T16:40:55;100431.09;;;6.46;82.49
78014;BME280;67222;50.182;8.734;2023-12-20T16:43:20;100425.06;;;6.37;81.91
78014;BME280;67222;50.182;8.734;2023-12-20T16:45:47;100430.34;;;6.37;82.78
78014;BME280;67222;50.182;8.734;2023-12-20T16:48:13;100419.75;;;6.37;82.68
78014;BME280;67222;50.182;8.734;2023-12-20T16:50:38;100421.03;;;6.41;82.70
78014;BME280;67222;50.182;8.734;2023-12-20T16:53:03;100423.41;;;6.36;82.40
78014;BME280;67222;50.182;8.734;2023-12-20T16:55:29;100419.63;;;6.30;81.53
78014;BME280;67222;50.182;8.734;2023-12-20T16:57:54;100421.56;;;6.36;82.32
78014;BME280;67222;50.182;8.734;2023-12-20T17:00:20;100412.44;;;6.39;81.73
78014;BME280;67222;50.182;8.734;2023-12-20T17:02:45;100420.41;;;6.39;81.91
78014;BME280;67222;50.182;8.734;2023-12-20T17:05:10;100404.88;;;6.36;81.91
78014;BME280;67222;50.182;8.734;2023-12-20T17:07:36;100400.56;;;6.35;82.64
78014;BME280;67222;50.182;8.734;2023-12-20T17:10:01;100405.38;;;6.31;82.40
78014;BME280;67222;50.182;8.734;2023-12-20T17:12:26;100403.03;;;6.36;81.77
78014;BME280;67222;50.182;8.734;2023-12-20T17:14:52;100402.63;;;6.25;83.33
78014;BME280;67222;50.182;8.734;2023-12-20T17:17:17;100399.31;;;6.23;83.29
78014;BME280;67222;50.182;8.734;2023-12-20T17:19:42;100406.91;;;6.26;82.58
78014;BME280;67222;50.182;8.734;2023-12-20T17:22:08;100398.59;;;6.29;83.31
78014;BME280;67222;50.182;8.734;2023-12-20T17:24:34;100411.03;;;6.28;81.51
78014;BME280;67222;50.182;8.734;2023-12-20T17:27:00;100414.81;;;6.34;81.92
78014;BME280;67222;50.182;8.734;2023-12-20T17:29:27;100412.81;;;6.36;82.38
78014;BME280;67222;50.182;8.734;2023-12-20T17:31:52;100411.16;;;6.35;81.72
78014;BME280;67222;50.182;8.734;2023-12-20T17:34:17;100414.13;;;6.32;82.51
78014;BME280;67222;50.182;8.734;2023-12-20T17:36:43;100412.84;;;6.28;82.33
78014;BME280;67222;50.182;8.734;2023-12-20T17:39:09;100412.50;;;6.31;82.82
78014;BME280;67222;50.182;8.734;2023-12-20T17:41:35;100423.09;;;6.31;81.95
78014;BME280;67222;50.182;8.734;2023-12-20T17:44:03;100417.16;;;6.29;82.65
78014;BME280;67222;50.182;8.734;2023-12-20T17:46:28;100419.97;;;6.27;82.88
78014;BME280;67222;50.182;8.734;2023-12-20T17:51:22;100422.16;;;6.24;83.44
78014;BME280;67222;50.182;8.734;2023-12-20T17:53:47;100408.56;;;6.27;84.20
78014;BME280;67222;50.182;8.734;2023-12-20T17:56:12;100402.44;;;6.26;84.39
78014;BME280;67222;50.182;8.734;2023-12-20T17:58:37;100397.59;;;6.30;83.66
78014;BME280;67222;50.182;8.734;2023-12-20T18:01:03;100391.75;;;6.20;84.17
78014;BME280;67222;50.182;8.734;2023-12-20T18:03:28;100388.72;;;6.23;83.93
78014;BME280;67222;50.182;8.734;2023-12-20T18:05:54;100385.72;;;6.26;84.06
78014;BME280;67222;50.182;8.734;2023-12-20T18:08:20;100384.78;;;6.19;83.92
78014;BME280;67222;50.182;8.734;2023-12-20T18:10:45;100382.06;;;6.27;83.38
78014;BME280;67222;50.182;8.734;2023-12-20T18:13:10;100382.44;;;6.24;84.34
78014;BME280;67222;50.182;8.734;2023-12-20T18:15:35;100391.75;;;6.20;83.92
78014;BME280;67222;50.182;8.734;2023-12-20T18:18:01;100371.03;;;6.23;84.54
78014;BME280;67222;50.182;8.734;2023-12-20T18:20:26;100377.38;;;6.14;84.97
78014;BME280;67222;50.182;8.734;2023-12-20T18:22:52;100371.56;;;6.19;85.30
78014;BME280;67222;50.182;8.734;2023-12-20T18:25:18;100370.09;;;6.16;85.80
78014;BME280;67222;50.182;8.734;2023-12-20T18:27:43;100377.69;;;6.19;86.25
78014;BME280;67222;50.182;8.734;2023-12-20T18:30:09;100373.78;;;6.07;86.74
78014;BME280;67222;50.182;8.734;2023-12-20T18:32:35;100368.63;;;6.14;87.21